sensor_id;sensor_type;location;lat;lon;timestamp;pressure;altitude;pressure_sealevel;temperature;humidity
64211;BME280;50528;48.514;14.394;2022-07-17T00:00:49;94670.61;;;13.39;60.36
64211;BME280;50528;48.514;14.394;2022-07-17T00:01:52;94668.79;;;13.37;60.11
64211;BME280;50528;48.514;14.394;2022-07-17T00:02:56;94669.39;;;13.34;60.06
64211;BME280;50528;48.514;14.394;2022-07-17T00:03:59;94672.73;;;13.32;60.00
64211;BME280;50528;48.514;14.394;2022-07-17T00:05:03;94672.23;;;13.30;60.27
64211;BME280;50528;48.514;14.394;2022-07-17T00:06:07;94670.73;;;13.29;60.38
64211;BME280;50528;48.514;14.394;2022-07-17T00:07:13;94671.02;;;13.27;60.49
64211;BME280;50528;48.514;14.394;2022-07-17T00:08:16;94670.48;;;13.26;60.59
64211;BME280;50528;48.514;14.394;2022-07-17T00:09:21;94672.52;;;13.24;60.86
64211;BME280;50528;48.514;14.394;2022-07-17T00:10:24;94672.70;;;13.22;61.02
64211;BME280;50528;48.514;14.394;2022-07-17T00:11:30;94669.28;;;13.20;60.96
64211;BME280;50528;48.514;14.394;2022-07-17T00:12:34;94669.80;;;13.19;61.10
64211;BME280;50528;48.514;14.394;2022-07-17T00:13:37;94668.50;;;13.17;61.09
64211;BME280;50528;48.514;14.394;2022-07-17T00:14:40;94668.48;;;13.16;61.08
64211;BME280;50528;48.514;14.394;2022-07-17T00:15:43;94666.98;;;13.15;61.13
64211;BME280;50528;48.514;14.394;2022-07-17T00:16:46;94668.72;;;13.14;61.26
64211;BME280;50528;48.514;14.394;2022-07-17T00:17:50;94665.39;;;13.13;61.06
64211;BME280;50528;48.514;14.394;2022-07-17T00:18:53;94667.26;;;13.11;60.98
64211;BME280;50528;48.514;14.394;2022-07-17T00:19:56;94667.02;;;13.11;61.09
64211;BME280;50528;48.514;14.394;2022-07-17T00:20:59;94667.61;;;13.09;61.09
64211;BME280;50528;48.514;14.394;2022-07-17T00:22:03;94667.70;;;13.07;61.09
64211;BME280;50528;48.514;14.394;2022-07-17T00:23:06;94662.32;;;13.00;60.98
64211;BME280;50528;48.514;14.394;2022-07-17T00:24:08;94669.59;;;13.00;60.97
64211;BME280;50528;48.514;14.394;2022-07-17T00:25:13;94667.45;;;12.98;61.08
64211;BME280;50528;48.514;14.394;2022-07-17T00:26:16;94669.32;;;12.96;60.98
64211;BME280;50528;48.514;14.394;2022-07-17T00:27:22;94667.52;;;12.94;61.02
64211;BME280;50528;48.514;14.394;2022-07-17T00:28:25;94664.37;;;12.90;60.90
64211;BME280;50528;48.514;14.394;2022-07-17T00:29:28;94670.90;;;12.89;60.94
64211;BME280;50528;48.514;14.394;2022-07-17T00:30:31;94670.41;;;12.85;61.06
64211;BME280;50528;48.514;14.394;2022-07-17T00:31:34;94669.88;;;12.81;60.99
64211;BME280;50528;48.514;14.394;2022-07-17T00:32:38;94668.86;;;12.80;60.82
64211;BME280;50528;48.514;14.394;2022-07-17T00:33:41;94667.45;;;12.78;60.97
64211;BME280;50528;48.514;14.394;2022-07-17T00:34:44;94666.83;;;12.76;61.03
64211;BME280;50528;48.514;14.394;2022-07-17T00:35:48;94667.52;;;12.76;61.47
64211;BME280;50528;48.514;14.394;2022-07-17T00:36:51;94666.92;;;12.75;61.44
64211;BME280;50528;48.514;14.394;2022-07-17T00:37:54;94671.02;;;12.74;61.38
64211;BME280;50528;48.514;14.394;2022-07-17T00:38:57;94670.23;;;12.74;61.47
64211;BME280;50528;48.514;14.394;2022-07-17T00:40:00;94671.48;;;12.73;61.81
64211;BME280;50528;48.514;14.394;2022-07-17T00:41:03;94669.40;;;12.75;62.03
64211;BME280;50528;48.514;14.394;2022-07-17T00:42:11;94672.91;;;12.76;61.94
64211;BME280;50528;48.514;14.394;2022-07-17T00:43:15;94669.45;;;12.78;61.95
64211;BME280;50528;48.514;14.394;2022-07-17T00:44:19;94669.55;;;12.80;62.09
64211;BME280;50528;48.514;14.394;2022-07-17T00:45:22;94673.77;;;12.83;62.18
64211;BME280;50528;48.514;14.394;2022-07-17T00:46:28;94672.26;;;12.86;62.16
64211;BME280;50528;48.514;14.394;2022-07-17T00:47:31;94671.92;;;12.88;62.22
64211;BME280;50528;48.514;14.394;2022-07-17T00:48:34;94670.23;;;12.90;62.21
64211;BME280;50528;48.514;14.394;2022-07-17T00:49:37;94673.20;;;12.92;62.16
64211;BME280;50528;48.514;14.394;2022-07-17T00:50:41;94671.06;;;12.93;62.24
64211;BME280;50528;48.514;14.394;2022-07-17T00:51:45;94668.45;;;12.91;61.99
64211;BME280;50528;48.514;14.394;2022-07-17T00:52:48;94666.89;;;12.93;62.07
64211;BME280;50528;48.514;14.394;2022-07-17T00:53:52;94671.35;;;12.98;61.98
64211;BME280;50528;48.514;14.394;2022-07-17T00:54:57;94672.75;;;12.99;62.13
64211;BME280;50528;48.514;14.394;2022-07-17T00:56:22;94675.84;;;12.98;61.94
64211;BME280;50528;48.514;14.394;2022-07-17T00:57:26;94680.14;;;12.99;61.97
64211;BME280;50528;48.514;14.394;2022-07-17T00:58:34;94676.61;;;12.99;61.82
64211;BME280;50528;48.514;14.394;2022-07-17T00:59:38;94678.35;;;12.99;61.73
64211;BME280;50528;48.514;14.394;2022-07-17T01:00:42;94680.73;;;12.97;61.60
64211;BME280;50528;48.514;14.394;2022-07-17T01:01:45;94681.23;;;12.97;61.65
64211;BME280;50528;48.514;14.394;2022-07-17T01:02:53;94680.45;;;12.95;61.44
64211;BME280;50528;48.514;14.394;2022-07-17T01:03:56;94679.74;;;12.94;61.23
64211;BME280;50528;48.514;14.394;2022-07-17T01:04:59;94682.61;;;12.92;61.39
64211;BME280;50528;48.514;14.394;2022-07-17T01:06:03;94682.48;;;12.91;61.29
64211;BME280;50528;48.514;14.394;2022-07-17T01:07:07;94682.79;;;12.90;61.16
64211;BME280;50528;48.514;14.394;2022-07-17T01:08:10;94686.94;;;12.89;61.22
64211;BME280;50528;48.514;14.394;2022-07-17T01:09:14;94687.21;;;12.87;61.42
64211;BME280;50528;48.514;14.394;2022-07-17T01:10:24;94686.86;;;12.84;61.34
64211;BME280;50528;48.514;14.394;2022-07-17T01:11:27;94686.64;;;12.83;61.52
64211;BME280;50528;48.514;14.394;2022-07-17T01:12:32;94687.64;;;12.83;61.39
64211;BME280;50528;48.514;14.394;2022-07-17T01:13:36;94689.36;;;12.82;61.42
64211;BME280;50528;48.514;14.394;2022-07-17T01:14:40;94687.54;;;12.80;61.40
64211;BME280;50528;48.514;14.394;2022-07-17T01:15:43;94688.94;;;12.79;61.60
64211;BME280;50528;48.514;14.394;2022-07-17T01:16:47;94692.99;;;12.79;61.62
64211;BME280;50528;48.514;14.394;2022-07-17T01:17:51;94691.85;;;12.76;61.64
64211;BME280;50528;48.514;14.394;2022-07-17T01:18:56;94692.16;;;12.75;61.53
64211;BME280;50528;48.514;14.394;2022-07-17T01:20:04;94685.48;;;12.71;61.56
64211;BME280;50528;48.514;14.394;2022-07-17T01:21:08;94694.10;;;12.71;61.68
64211;BME280;50528;48.514;14.394;2022-07-17T01:22:11;94693.36;;;12.71;61.71
64211;BME280;50528;48.514;14.394;2022-07-17T01:23:17;94695.66;;;12.69;61.68
64211;BME280;50528;48.514;14.394;2022-07-17T01:24:20;94693.73;;;12.68;61.68
64211;BME280;50528;48.514;14.394;2022-07-17T01:25:23;94693.86;;;12.67;61.72
64211;BME280;50528;48.514;14.394;2022-07-17T01:26:26;94693.16;;;12.66;61.81
64211;BME280;50528;48.514;14.394;2022-07-17T01:27:29;94698.07;;;12.65;61.76
64211;BME280;50528;48.514;14.394;2022-07-17T01:28:32;94696.15;;;12.64;61.64
64211;BME280;50528;48.514;14.394;2022-07-17T01:29:37;94693.65;;;12.63;61.57
64211;BME280;50528;48.514;14.394;2022-07-17T01:30:51;94695.25;;;12.62;61.57
64211;BME280;50528;48.514;14.394;2022-07-17T01:31:55;94697.98;;;12.60;61.56
64211;BME280;50528;48.514;14.394;2022-07-17T01:32:58;94695.44;;;12.57;61.60
64211;BME280;50528;48.514;14.394;2022-07-17T01:34:03;94695.73;;;12.58;61.60
64211;BME280;50528;48.514;14.394;2022-07-17T01:35:10;94694.98;;;12.55;61.61
64211;BME280;50528;48.514;14.394;2022-07-17T01:36:13;94695.66;;;12.52;61.56
64211;BME280;50528;48.514;14.394;2022-07-17T01:37:16;94691.67;;;12.50;61.77
64211;BME280;50528;48.514;14.394;2022-07-17T01:38:19;94690.43;;;12.48;61.84
64211;BME280;50528;48.514;14.394;2022-07-17T01:39:22;94695.88;;;12.49;61.88
64211;BME280;50528;48.514;14.394;2022-07-17T01:40:45;94697.27;;;12.47;61.91
64211;BME280;50528;48.514;14.394;2022-07-17T01:41:48;94699.50;;;12.45;62.03
64211;BME280;50528;48.514;14.394;2022-07-17T01:42:51;94698.15;;;12.44;62.10
64211;BME280;50528;48.514;14.394;2022-07-17T01:43:54;94698.77;;;12.43;62.19
64211;BME280;50528;48.514;14.394;2022-07-17T01:44:58;94697.45;;;12.42;62.17
64211;BME280;50528;48.514;14.394;2022-07-17T01:46:02;94697.20;;;12.41;62.08
64211;BME280;50528;48.514;14.394;2022-07-17T01:47:05;94695.95;;;12.39;62.17
64211;BME280;50528;48.514;14.394;2022-07-17T01:48:08;94695.23;;;12.37;62.41
64211;BME280;50528;48.514;14.394;2022-07-17T01:49:12;94699.92;;;12.37;62.40
64211;BME280;50528;48.514;14.394;2022-07-17T01:50:17;94698.91;;;12.35;62.34
64211;BME280;50528;48.514;14.394;2022-07-17T01:51:20;94701.55;;;12.36;62.38
64211;BME280;50528;48.514;14.394;2022-07-17T01:52:29;94696.59;;;12.36;62.43
64211;BME280;50528;48.514;14.394;2022-07-17T01:53:32;94700.81;;;12.36;62.44
64211;BME280;50528;48.514;14.394;2022-07-17T01:54:35;94698.67;;;12.35;62.36
64211;BME280;50528;48.514;14.394;2022-07-17T01:55:38;94699.95;;;12.35;62.47
64211;BME280;50528;48.514;14.394;2022-07-17T01:56:41;94697.23;;;12.34;62.43
64211;BME280;50528;48.514;14.394;2022-07-17T01:57:44;94697.38;;;12.33;62.41
64211;BME280;50528;48.514;14.394;2022-07-17T01:58:47;94699.05;;;12.32;62.52
64211;BME280;50528;48.514;14.394;2022-07-17T01:59:50;94699.62;;;12.31;62.44
64211;BME280;50528;48.514;14.394;2022-07-17T02:00:54;94699.07;;;12.30;62.47
64211;BME280;50528;48.514;14.394;2022-07-17T02:01:57;94699.30;;;12.28;62.36
64211;BME280;50528;48.514;14.394;2022-07-17T02:03:00;94697.56;;;12.26;62.25
64211;BME280;50528;48.514;14.394;2022-07-17T02:04:04;94699.56;;;12.25;62.36
64211;BME280;50528;48.514;14.394;2022-07-17T02:05:07;94699.01;;;12.23;62.38
64211;BME280;50528;48.514;14.394;2022-07-17T02:06:10;94697.55;;;12.22;62.27
64211;BME280;50528;48.514;14.394;2022-07-17T02:07:13;94700.27;;;12.21;62.39
64211;BME280;50528;48.514;14.394;2022-07-17T02:08:17;94697.75;;;12.19;62.59
64211;BME280;50528;48.514;14.394;2022-07-17T02:09:21;94698.90;;;12.17;62.59
64211;BME280;50528;48.514;14.394;2022-07-17T02:10:25;94696.72;;;12.14;62.46
64211;BME280;50528;48.514;14.394;2022-07-17T02:11:28;94697.42;;;12.16;62.67
64211;BME280;50528;48.514;14.394;2022-07-17T02:12:31;94693.73;;;12.12;62.69
64211;BME280;50528;48.514;14.394;2022-07-17T02:13:34;94697.61;;;12.14;62.80
64211;BME280;50528;48.514;14.394;2022-07-17T02:14:38;94700.71;;;12.13;62.80
64211;BME280;50528;48.514;14.394;2022-07-17T02:15:41;94697.55;;;12.14;62.76
64211;BME280;50528;48.514;14.394;2022-07-17T02:16:44;94696.27;;;12.13;62.76
64211;BME280;50528;48.514;14.394;2022-07-17T02:17:47;94694.74;;;12.10;62.97
64211;BME280;50528;48.514;14.394;2022-07-17T02:18:51;94697.85;;;12.10;62.87
64211;BME280;50528;48.514;14.394;2022-07-17T02:19:54;94700.57;;;12.09;63.00
64211;BME280;50528;48.514;14.394;2022-07-17T02:20:56;94695.95;;;12.07;63.21
64211;BME280;50528;48.514;14.394;2022-07-17T02:21:59;94698.52;;;12.07;63.33
64211;BME280;50528;48.514;14.394;2022-07-17T02:23:03;94693.85;;;12.05;63.43
64211;BME280;50528;48.514;14.394;2022-07-17T02:24:06;94701.83;;;12.05;63.54
64211;BME280;50528;48.514;14.394;2022-07-17T02:25:09;94696.48;;;12.02;63.31
64211;BME280;50528;48.514;14.394;2022-07-17T02:26:13;94701.11;;;12.04;63.53
64211;BME280;50528;48.514;14.394;2022-07-17T02:27:16;94700.70;;;12.05;63.51
64211;BME280;50528;48.514;14.394;2022-07-17T02:28:19;94699.02;;;12.05;63.59
64211;BME280;50528;48.514;14.394;2022-07-17T02:29:22;94702.27;;;12.06;63.34
64211;BME280;50528;48.514;14.394;2022-07-17T02:30:25;94701.52;;;12.06;63.58
64211;BME280;50528;48.514;14.394;2022-07-17T02:31:34;94701.80;;;12.07;63.58
64211;BME280;50528;48.514;14.394;2022-07-17T02:32:50;94696.56;;;12.06;63.50
64211;BME280;50528;48.514;14.394;2022-07-17T02:33:53;94696.55;;;12.05;63.59
64211;BME280;50528;48.514;14.394;2022-07-17T02:34:56;94697.86;;;12.07;63.62
64211;BME280;50528;48.514;14.394;2022-07-17T02:35:59;94698.22;;;12.07;63.66
64211;BME280;50528;48.514;14.394;2022-07-17T02:37:04;94695.03;;;12.06;63.70
64211;BME280;50528;48.514;14.394;2022-07-17T02:38:07;94696.51;;;12.03;63.59
64211;BME280;50528;48.514;14.394;2022-07-17T02:39:13;94695.53;;;12.02;63.66
64211;BME280;50528;48.514;14.394;2022-07-17T02:40:16;94694.88;;;12.00;63.48
64211;BME280;50528;48.514;14.394;2022-07-17T02:41:19;94698.22;;;11.99;63.46
64211;BME280;50528;48.514;14.394;2022-07-17T02:42:23;94697.23;;;11.98;63.46
64211;BME280;50528;48.514;14.394;2022-07-17T02:43:27;94696.78;;;11.96;63.40
64211;BME280;50528;48.514;14.394;2022-07-17T02:44:30;94697.09;;;11.95;63.48
64211;BME280;50528;48.514;14.394;2022-07-17T02:45:33;94701.59;;;11.93;63.44
64211;BME280;50528;48.514;14.394;2022-07-17T02:46:36;94696.31;;;11.91;63.48
64211;BME280;50528;48.514;14.394;2022-07-17T02:47:40;94696.36;;;11.93;63.55
64211;BME280;50528;48.514;14.394;2022-07-17T02:48:47;94695.35;;;11.93;63.46
64211;BME280;50528;48.514;14.394;2022-07-17T02:49:51;94692.71;;;11.90;63.55
64211;BME280;50528;48.514;14.394;2022-07-17T02:50:54;94697.70;;;11.92;63.74
64211;BME280;50528;48.514;14.394;2022-07-17T02:51:58;94696.17;;;11.92;63.66
64211;BME280;50528;48.514;14.394;2022-07-17T02:53:01;94695.48;;;11.91;63.79
64211;BME280;50528;48.514;14.394;2022-07-17T02:54:04;94696.70;;;11.92;63.72
64211;BME280;50528;48.514;14.394;2022-07-17T02:55:08;94698.59;;;11.91;63.87
64211;BME280;50528;48.514;14.394;2022-07-17T02:56:11;94697.10;;;11.90;63.95
64211;BME280;50528;48.514;14.394;2022-07-17T02:57:15;94695.08;;;11.89;64.07
64211;BME280;50528;48.514;14.394;2022-07-17T02:58:18;94697.18;;;11.88;64.12
64211;BME280;50528;48.514;14.394;2022-07-17T02:59:21;94698.80;;;11.88;64.22
64211;BME280;50528;48.514;14.394;2022-07-17T03:00:25;94698.05;;;11.87;64.17
64211;BME280;50528;48.514;14.394;2022-07-17T03:01:29;94696.40;;;11.87;64.29
64211;BME280;50528;48.514;14.394;2022-07-17T03:02:34;94697.80;;;11.86;64.41
64211;BME280;50528;48.514;14.394;2022-07-17T03:03:37;94698.46;;;11.85;64.17
64211;BME280;50528;48.514;14.394;2022-07-17T03:04:41;94698.80;;;11.83;64.28
64211;BME280;50528;48.514;14.394;2022-07-17T03:05:45;94699.55;;;11.84;64.33
64211;BME280;50528;48.514;14.394;2022-07-17T03:06:51;94702.29;;;11.84;64.40
64211;BME280;50528;48.514;14.394;2022-07-17T03:07:54;94698.13;;;11.83;64.30
64211;BME280;50528;48.514;14.394;2022-07-17T03:08:57;94702.56;;;11.84;64.35
64211;BME280;50528;48.514;14.394;2022-07-17T03:10:01;94704.90;;;11.85;64.39
64211;BME280;50528;48.514;14.394;2022-07-17T03:11:04;94702.21;;;11.85;64.36
64211;BME280;50528;48.514;14.394;2022-07-17T03:12:07;94701.69;;;11.85;64.27
64211;BME280;50528;48.514;14.394;2022-07-17T03:13:10;94705.45;;;11.86;64.05
64211;BME280;50528;48.514;14.394;2022-07-17T03:14:13;94705.08;;;11.86;64.22
64211;BME280;50528;48.514;14.394;2022-07-17T03:15:18;94703.63;;;11.84;64.34
64211;BME280;50528;48.514;14.394;2022-07-17T03:16:21;94701.22;;;11.81;64.08
64211;BME280;50528;48.514;14.394;2022-07-17T03:17:24;94708.14;;;11.81;64.03
64211;BME280;50528;48.514;14.394;2022-07-17T03:18:27;94691.13;;;11.69;64.10
64211;BME280;50528;48.514;14.394;2022-07-17T03:19:31;94705.73;;;11.76;63.97
64211;BME280;50528;48.514;14.394;2022-07-17T03:20:34;94711.77;;;11.73;64.03
64211;BME280;50528;48.514;14.394;2022-07-17T03:21:37;94708.59;;;11.71;64.16
64211;BME280;50528;48.514;14.394;2022-07-17T03:22:40;94708.02;;;11.69;64.11
64211;BME280;50528;48.514;14.394;2022-07-17T03:23:42;94712.45;;;11.67;64.20
64211;BME280;50528;48.514;14.394;2022-07-17T03:24:46;94709.58;;;11.65;64.31
64211;BME280;50528;48.514;14.394;2022-07-17T03:25:49;94713.61;;;11.62;64.26
64211;BME280;50528;48.514;14.394;2022-07-17T03:26:52;94711.66;;;11.62;64.51
64211;BME280;50528;48.514;14.394;2022-07-17T03:27:55;94713.03;;;11.59;64.40
64211;BME280;50528;48.514;14.394;2022-07-17T03:28:58;94714.39;;;11.59;64.50
64211;BME280;50528;48.514;14.394;2022-07-17T03:30:01;94717.48;;;11.58;64.54
64211;BME280;50528;48.514;14.394;2022-07-17T03:31:04;94716.27;;;11.58;64.62
64211;BME280;50528;48.514;14.394;2022-07-17T03:32:07;94719.05;;;11.58;64.56
64211;BME280;50528;48.514;14.394;2022-07-17T03:33:11;94713.71;;;11.57;64.67
64211;BME280;50528;48.514;14.394;2022-07-17T03:34:14;94713.92;;;11.57;64.69
64211;BME280;50528;48.514;14.394;2022-07-17T03:35:17;94714.48;;;11.57;64.51
64211;BME280;50528;48.514;14.394;2022-07-17T03:36:20;94717.68;;;11.55;64.52
64211;BME280;50528;48.514;14.394;2022-07-17T03:37:23;94715.99;;;11.53;64.59
64211;BME280;50528;48.514;14.394;2022-07-17T03:38:26;94716.13;;;11.52;64.45
64211;BME280;50528;48.514;14.394;2022-07-17T03:39:30;94720.09;;;11.50;64.31
64211;BME280;50528;48.514;14.394;2022-07-17T03:40:33;94719.05;;;11.49;64.44
64211;BME280;50528;48.514;14.394;2022-07-17T03:41:37;94717.84;;;11.47;64.50
64211;BME280;50528;48.514;14.394;2022-07-17T03:42:40;94718.09;;;11.47;64.71
64211;BME280;50528;48.514;14.394;2022-07-17T03:43:43;94717.23;;;11.47;64.56
64211;BME280;50528;48.514;14.394;2022-07-17T03:44:46;94718.75;;;11.46;64.61
64211;BME280;50528;48.514;14.394;2022-07-17T03:45:49;94718.31;;;11.45;64.73
64211;BME280;50528;48.514;14.394;2022-07-17T03:46:54;94716.34;;;11.42;64.91
64211;BME280;50528;48.514;14.394;2022-07-17T03:47:57;94722.94;;;11.45;64.84
64211;BME280;50528;48.514;14.394;2022-07-17T03:49:03;94721.74;;;11.46;64.75
64211;BME280;50528;48.514;14.394;2022-07-17T03:50:06;94722.67;;;11.47;64.67
64211;BME280;50528;48.514;14.394;2022-07-17T03:51:09;94723.08;;;11.46;64.51
64211;BME280;50528;48.514;14.394;2022-07-17T03:52:12;94723.01;;;11.46;64.59
64211;BME280;50528;48.514;14.394;2022-07-17T03:53:15;94723.73;;;11.46;64.66
64211;BME280;50528;48.514;14.394;2022-07-17T03:54:18;94724.52;;;11.45;64.48
64211;BME280;50528;48.514;14.394;2022-07-17T03:55:22;94725.27;;;11.43;64.56
64211;BME280;50528;48.514;14.394;2022-07-17T03:56:25;94723.30;;;11.42;64.44
64211;BME280;50528;48.514;14.394;2022-07-17T03:57:28;94726.39;;;11.42;64.55
64211;BME280;50528;48.514;14.394;2022-07-17T03:58:32;94723.77;;;11.42;64.50
64211;BME280;50528;48.514;14.394;2022-07-17T03:59:35;94725.81;;;11.41;64.54
64211;BME280;50528;48.514;14.394;2022-07-17T04:00:38;94724.52;;;11.40;64.65
64211;BME280;50528;48.514;14.394;2022-07-17T04:01:41;94726.77;;;11.39;64.64
64211;BME280;50528;48.514;14.394;2022-07-17T04:02:44;94726.14;;;11.40;64.78
64211;BME280;50528;48.514;14.394;2022-07-17T04:03:48;94726.95;;;11.41;64.80
64211;BME280;50528;48.514;14.394;2022-07-17T04:04:51;94727.83;;;11.42;64.88
64211;BME280;50528;48.514;14.394;2022-07-17T04:05:54;94730.83;;;11.43;64.96
64211;BME280;50528;48.514;14.394;2022-07-17T04:06:57;94729.18;;;11.44;64.92
64211;BME280;50528;48.514;14.394;2022-07-17T04:08:01;94730.90;;;11.46;65.10
64211;BME280;50528;48.514;14.394;2022-07-17T04:09:04;94723.36;;;11.42;65.13
64211;BME280;50528;48.514;14.394;2022-07-17T04:10:10;94728.80;;;11.48;65.28
64211;BME280;50528;48.514;14.394;2022-07-17T04:11:13;94728.79;;;11.50;65.24
64211;BME280;50528;48.514;14.394;2022-07-17T04:12:16;94732.05;;;11.52;65.50
64211;BME280;50528;48.514;14.394;2022-07-17T04:13:19;94734.56;;;11.54;65.44
64211;BME280;50528;48.514;14.394;2022-07-17T04:14:22;94734.88;;;11.54;65.30
64211;BME280;50528;48.514;14.394;2022-07-17T04:15:25;94735.46;;;11.55;65.36
64211;BME280;50528;48.514;14.394;2022-07-17T04:16:46;94737.18;;;11.54;65.19
64211;BME280;50528;48.514;14.394;2022-07-17T04:17:49;94732.83;;;11.54;65.39
64211;BME280;50528;48.514;14.394;2022-07-17T04:18:52;94731.05;;;11.55;65.58
64211;BME280;50528;48.514;14.394;2022-07-17T04:19:56;94732.80;;;11.56;65.54
64211;BME280;50528;48.514;14.394;2022-07-17T04:21:04;94732.05;;;11.58;65.66
64211;BME280;50528;48.514;14.394;2022-07-17T04:22:07;94731.30;;;11.59;65.74
64211;BME280;50528;48.514;14.394;2022-07-17T04:23:10;94730.98;;;11.61;65.65
64211;BME280;50528;48.514;14.394;2022-07-17T04:24:14;94732.11;;;11.63;65.74
64211;BME280;50528;48.514;14.394;2022-07-17T04:25:17;94734.67;;;11.66;65.98
64211;BME280;50528;48.514;14.394;2022-07-17T04:26:20;94734.85;;;11.68;65.89
64211;BME280;50528;48.514;14.394;2022-07-17T04:27:23;94734.08;;;11.71;65.76
64211;BME280;50528;48.514;14.394;2022-07-17T04:28:26;94730.97;;;11.73;66.00
64211;BME280;50528;48.514;14.394;2022-07-17T04:29:29;94733.51;;;11.75;65.86
64211;BME280;50528;48.514;14.394;2022-07-17T04:30:33;94729.75;;;11.77;65.90
64211;BME280;50528;48.514;14.394;2022-07-17T04:31:36;94729.99;;;11.78;65.97
64211;BME280;50528;48.514;14.394;2022-07-17T04:32:39;94726.98;;;11.78;65.84
64211;BME280;50528;48.514;14.394;2022-07-17T04:33:42;94727.23;;;11.82;65.86
64211;BME280;50528;48.514;14.394;2022-07-17T04:34:45;94730.27;;;11.83;65.92
64211;BME280;50528;48.514;14.394;2022-07-17T04:35:48;94730.12;;;11.84;65.83
64211;BME280;50528;48.514;14.394;2022-07-17T04:36:52;94731.15;;;11.86;65.85
64211;BME280;50528;48.514;14.394;2022-07-17T04:37:55;94731.86;;;11.87;65.90
64211;BME280;50528;48.514;14.394;2022-07-17T04:38:58;94730.25;;;11.88;65.92
64211;BME280;50528;48.514;14.394;2022-07-17T04:40:01;94732.77;;;11.90;66.02
64211;BME280;50528;48.514;14.394;2022-07-17T04:41:04;94733.64;;;11.92;66.07
64211;BME280;50528;48.514;14.394;2022-07-17T04:42:07;94732.44;;;11.93;66.01
64211;BME280;50528;48.514;14.394;2022-07-17T04:43:10;94734.48;;;11.94;66.01
64211;BME280;50528;48.514;14.394;2022-07-17T04:44:13;94734.24;;;11.96;66.23
64211;BME280;50528;48.514;14.394;2022-07-17T04:45:18;94732.50;;;11.95;66.23
64211;BME280;50528;48.514;14.394;2022-07-17T04:46:21;94729.88;;;11.99;66.28
64211;BME280;50528;48.514;14.394;2022-07-17T04:47:24;94731.36;;;12.01;66.18
64211;BME280;50528;48.514;14.394;2022-07-17T04:48:27;94731.48;;;12.03;66.26
64211;BME280;50528;48.514;14.394;2022-07-17T04:49:30;94730.64;;;12.05;66.42
64211;BME280;50528;48.514;14.394;2022-07-17T04:50:33;94732.11;;;12.08;66.35
64211;BME280;50528;48.514;14.394;2022-07-17T04:51:37;94732.19;;;12.11;66.40
64211;BME280;50528;48.514;14.394;2022-07-17T04:52:40;94734.02;;;12.14;66.62
64211;BME280;50528;48.514;14.394;2022-07-17T04:53:43;94731.34;;;12.17;66.54
64211;BME280;50528;48.514;14.394;2022-07-17T04:54:46;94730.38;;;12.19;66.47
64211;BME280;50528;48.514;14.394;2022-07-17T04:55:49;94731.35;;;12.22;66.47
64211;BME280;50528;48.514;14.394;2022-07-17T04:56:52;94732.46;;;12.25;66.45
64211;BME280;50528;48.514;14.394;2022-07-17T04:57:55;94732.40;;;12.28;66.51
64211;BME280;50528;48.514;14.394;2022-07-17T04:58:58;94731.88;;;12.30;66.67
64211;BME280;50528;48.514;14.394;2022-07-17T05:00:04;94732.05;;;12.32;66.72
64211;BME280;50528;48.514;14.394;2022-07-17T05:01:07;94729.36;;;12.34;66.57
64211;BME280;50528;48.514;14.394;2022-07-17T05:02:10;94731.71;;;12.37;66.69
64211;BME280;50528;48.514;14.394;2022-07-17T05:03:14;94730.56;;;12.40;66.67
64211;BME280;50528;48.514;14.394;2022-07-17T05:04:18;94730.26;;;12.43;66.84
64211;BME280;50528;48.514;14.394;2022-07-17T05:05:29;94733.66;;;12.47;66.83
64211;BME280;50528;48.514;14.394;2022-07-17T05:06:32;94734.11;;;12.50;66.97
64211;BME280;50528;48.514;14.394;2022-07-17T05:07:35;94731.51;;;12.51;66.94
64211;BME280;50528;48.514;14.394;2022-07-17T05:08:38;94741.04;;;12.56;67.04
64211;BME280;50528;48.514;14.394;2022-07-17T05:09:41;94736.36;;;12.59;67.22
64211;BME280;50528;48.514;14.394;2022-07-17T05:10:45;94734.05;;;12.60;67.18
64211;BME280;50528;48.514;14.394;2022-07-17T05:11:48;94737.84;;;12.65;67.12
64211;BME280;50528;48.514;14.394;2022-07-17T05:12:51;94738.52;;;12.69;67.47
64211;BME280;50528;48.514;14.394;2022-07-17T05:13:54;94735.98;;;12.71;67.22
64211;BME280;50528;48.514;14.394;2022-07-17T05:14:57;94735.19;;;12.75;67.36
64211;BME280;50528;48.514;14.394;2022-07-17T05:16:01;94732.92;;;12.77;67.46
64211;BME280;50528;48.514;14.394;2022-07-17T05:17:04;94732.54;;;12.80;67.47
64211;BME280;50528;48.514;14.394;2022-07-17T05:18:07;94733.61;;;12.84;67.66
64211;BME280;50528;48.514;14.394;2022-07-17T05:19:11;94734.75;;;12.86;67.67
64211;BME280;50528;48.514;14.394;2022-07-17T05:20:13;94732.51;;;12.91;68.01
64211;BME280;50528;48.514;14.394;2022-07-17T05:21:17;94732.83;;;12.94;67.85
64211;BME280;50528;48.514;14.394;2022-07-17T05:22:20;94732.45;;;12.98;67.88
64211;BME280;50528;48.514;14.394;2022-07-17T05:23:23;94735.54;;;13.01;67.98
64211;BME280;50528;48.514;14.394;2022-07-17T05:24:26;94734.69;;;13.04;68.03
64211;BME280;50528;48.514;14.394;2022-07-17T05:25:29;94736.69;;;13.07;68.06
64211;BME280;50528;48.514;14.394;2022-07-17T05:26:33;94738.23;;;13.11;68.27
64211;BME280;50528;48.514;14.394;2022-07-17T05:27:36;94736.23;;;13.14;68.24
64211;BME280;50528;48.514;14.394;2022-07-17T05:28:39;94737.09;;;13.18;68.31
64211;BME280;50528;48.514;14.394;2022-07-17T05:29:42;94737.40;;;13.21;68.06
64211;BME280;50528;48.514;14.394;2022-07-17T05:30:45;94736.54;;;13.23;68.09
64211;BME280;50528;48.514;14.394;2022-07-17T05:31:48;94735.73;;;13.26;68.11
64211;BME280;50528;48.514;14.394;2022-07-17T05:32:51;94739.67;;;13.30;67.93
64211;BME280;50528;48.514;14.394;2022-07-17T05:33:54;94736.36;;;13.33;67.60